createdAt,value
2022-09-10T00:01:14.549Z,15
2022-09-10T00:03:18.304Z,15
2022-09-10T00:05:22.269Z,15
2022-09-10T00:07:26.203Z,14.9
2022-09-10T00:09:30.160Z,14.9
2022-09-10T00:11:34.083Z,15
2022-09-10T00:13:38.036Z,15.1
2022-09-10T00:15:44.797Z,15.1
2022-09-10T00:17:48.734Z,15.1
2022-09-10T00:19:52.683Z,15.1
2022-09-10T00:21:56.633Z,15
2022-09-10T00:24:00.589Z,15
2022-09-10T00:26:04.532Z,15.1
2022-09-10T00:28:08.460Z,15
2022-09-10T00:30:15.237Z,15.1
2022-09-10T00:32:19.178Z,15.1
2022-09-10T00:34:23.219Z,15
2022-09-10T00:36:27.181Z,15
2022-09-10T00:38:31.164Z,15
2022-09-10T00:40:35.041Z,15
2022-09-10T00:48:53.823Z,15
2022-09-10T00:51:17.362Z,14.9
2022-09-10T00:55:25.245Z,14.9
2022-09-10T00:57:32.026Z,14.9
2022-09-10T00:59:35.970Z,14.9
2022-09-10T01:01:39.960Z,14.9
2022-09-10T01:05:47.842Z,14.9
2022-09-10T01:07:51.737Z,14.9
2022-09-10T01:09:55.684Z,14.9
2022-09-10T01:12:04.416Z,14.9
2022-09-10T01:14:06.404Z,14.9
2022-09-10T01:16:10.400Z,14.9
2022-09-10T01:18:14.319Z,14.8
2022-09-10T01:20:18.263Z,14.8
2022-09-10T01:22:22.202Z,14.8
2022-09-10T01:24:26.146Z,14.8
2022-09-10T01:26:32.915Z,14.9
2022-09-10T01:28:36.931Z,15
2022-09-10T01:30:40.804Z,15
2022-09-10T01:32:44.725Z,15.1
2022-09-10T01:34:48.686Z,15.1
2022-09-10T01:36:52.629Z,15.1
2022-09-10T01:38:56.564Z,15.1
2022-09-10T01:41:03.337Z,15.1
2022-09-10T01:43:07.271Z,15.1
2022-09-10T01:45:11.208Z,15.2
2022-09-10T01:48:18.548Z,15.2
2022-09-10T01:52:26.422Z,15.2
2022-09-10T01:56:37.140Z,15.2
2022-09-10T01:58:41.071Z,15.2
2022-09-10T02:00:45.080Z,15.2
2022-09-10T02:04:52.977Z,15.2
2022-09-10T02:06:56.884Z,15.2
2022-09-10T02:09:03.665Z,15.2
2022-09-10T02:17:19.449Z,15.1
2022-09-10T02:21:27.328Z,15.2
2022-09-10T02:23:34.087Z,15.2
2022-09-10T02:25:38.047Z,15.2
2022-09-10T02:29:45.945Z,15.2
2022-09-10T02:33:53.834Z,15.2
2022-09-10T02:35:57.800Z,15.2
2022-09-10T02:38:04.545Z,15.1
2022-09-10T02:40:08.522Z,15.1
2022-09-10T02:42:12.434Z,15.1
2022-09-10T02:43:15.819Z,15.1
2022-09-10T02:45:19.873Z,15.1
2022-09-10T02:47:23.726Z,15.2
2022-09-10T02:49:29.161Z,15.2
2022-09-10T02:51:35.895Z,15.1
2022-09-10T02:53:39.825Z,15.1
2022-09-10T02:55:43.782Z,15.1
2022-09-10T02:57:47.724Z,15.2
2022-09-10T02:59:51.664Z,15.1
2022-09-10T03:01:55.674Z,15.1
2022-09-10T03:06:06.296Z,15.1
2022-09-10T03:08:10.250Z,15.1
2022-09-10T03:10:14.222Z,15.1
2022-09-10T03:12:18.175Z,15.2
2022-09-10T03:14:22.122Z,15.2
2022-09-10T03:16:26.071Z,15.2
2022-09-10T03:18:29.992Z,15.2
2022-09-10T03:20:36.761Z,15.2
2022-09-10T03:22:40.680Z,15.2
2022-09-10T03:24:44.646Z,15.2
2022-09-10T03:26:48.565Z,15.2
2022-09-10T03:30:56.478Z,15.2
2022-09-10T03:40:18.465Z,15.2
2022-09-10T03:42:22.417Z,15.2
2022-09-10T03:44:26.372Z,15.2
2022-09-10T03:46:30.308Z,15.2
2022-09-10T03:48:37.130Z,15.2
2022-09-10T03:50:41.038Z,15.1
2022-09-10T03:52:44.967Z,15.1
2022-09-10T03:54:48.905Z,15.2
2022-09-10T03:56:52.869Z,15.2
2022-09-10T03:58:56.813Z,15.2
2022-09-10T04:01:00.847Z,15.1
2022-09-10T04:03:07.528Z,15.2
2022-09-10T04:05:11.478Z,15.2
2022-09-10T04:07:15.401Z,15.2
2022-09-10T04:09:19.365Z,15.2
2022-09-10T04:13:27.218Z,15.1
2022-09-10T04:17:37.930Z,15.1
2022-09-10T04:21:45.822Z,15.2
2022-09-10T04:27:57.644Z,15.2
2022-09-10T04:32:08.357Z,15.2
2022-09-10T04:36:16.211Z,15.2
2022-09-10T04:40:38.277Z,15.2
2022-09-10T04:42:42.250Z,15.2
2022-09-10T04:44:49.027Z,15.2
2022-09-10T04:48:57.040Z,15.2
2022-09-10T04:51:15.845Z,15.2
2022-09-10T04:53:04.904Z,15.2
2022-09-10T04:55:08.843Z,15.2
2022-09-10T04:59:19.572Z,15.2
2022-09-10T05:01:23.621Z,15.2
2022-09-10T05:03:27.460Z,15.2
2022-09-10T05:05:31.390Z,15.2
2022-09-10T05:07:35.348Z,15.2
2022-09-10T05:09:39.287Z,15.2
2022-09-10T05:15:53.938Z,15.3
2022-09-10T05:17:57.875Z,15.2
2022-09-10T05:22:05.802Z,15.3
2022-09-10T05:24:09.745Z,15.2
2022-09-10T05:26:13.688Z,15.3
2022-09-10T05:28:20.461Z,15.3
2022-09-10T05:30:24.404Z,15.3
2022-09-10T05:35:35.678Z,15.3
2022-09-10T05:41:50.344Z,15.2
2022-09-10T05:43:54.271Z,15.2
2022-09-10T05:45:58.299Z,15.2
2022-09-10T05:48:02.169Z,15.2
2022-09-10T05:50:06.120Z,15.2
2022-09-10T05:54:14.016Z,15.2
2022-09-10T05:58:24.747Z,15.3
2022-09-10T06:00:28.683Z,15.3
2022-09-10T06:02:32.691Z,15.4
2022-09-10T06:04:36.571Z,15.4
2022-09-10T06:08:44.465Z,15.4
2022-09-10T06:10:51.236Z,15.6
2022-09-10T06:12:55.195Z,15.7
2022-09-10T06:14:59.120Z,15.6
2022-09-10T06:17:03.076Z,15.7
2022-09-10T06:19:07.032Z,15.7
2022-09-10T06:21:10.968Z,15.8
2022-09-10T06:23:14.906Z,15.8
2022-09-10T06:25:21.676Z,15.8
2022-09-10T06:27:25.624Z,15.7
2022-09-10T06:29:29.586Z,15.7
2022-09-10T06:30:33.029Z,15.8
2022-09-10T06:32:36.914Z,15.8
2022-09-10T06:34:40.879Z,15.9
2022-09-10T06:38:51.587Z,15.9
2022-09-10T06:40:55.545Z,15.9
2022-09-10T06:42:59.505Z,15.9
2022-09-10T06:45:03.428Z,15.9
2022-09-10T06:49:11.343Z,15.9
2022-09-10T06:51:15.282Z,15.9
2022-09-10T06:53:22.041Z,16.2
2022-09-10T06:55:26.035Z,16.3
2022-09-10T06:57:29.970Z,16.5
2022-09-10T06:59:33.918Z,16.7
2022-09-10T07:01:37.964Z,16.8
2022-09-10T07:03:41.819Z,16.9
2022-09-10T07:05:45.765Z,17
2022-09-10T07:07:52.519Z,17.6
2022-09-10T07:09:56.470Z,17.7
2022-09-10T07:12:00.413Z,17.5
2022-09-10T07:14:04.366Z,17.7
2022-09-10T07:16:08.488Z,17.8
2022-09-10T07:18:12.257Z,17.5
2022-09-10T07:20:16.220Z,17.4
2022-09-10T07:22:22.967Z,17.3
2022-09-10T07:24:26.947Z,17.4
2022-09-10T07:26:30.871Z,17.2
2022-09-10T07:27:34.262Z,17.2
2022-09-10T07:33:46.086Z,17.6
2022-09-10T07:37:56.800Z,17.8
2022-09-10T07:40:00.782Z,17.8
2022-09-10T07:42:04.673Z,17.5
2022-09-10T07:48:16.492Z,16.9
2022-09-10T07:50:23.276Z,16.7
2022-09-10T07:52:27.190Z,16.7
2022-09-10T07:54:31.133Z,16.8
2022-09-10T07:56:35.080Z,16.8
2022-09-10T07:58:39.200Z,16.8
2022-09-10T08:00:42.984Z,16.7
2022-09-10T08:02:47.028Z,16.6
2022-09-10T08:04:53.696Z,16.6
2022-09-10T08:06:57.631Z,16.6
2022-09-10T08:09:01.574Z,16.5
2022-09-10T08:11:08.557Z,16.5
2022-09-10T08:13:09.464Z,16.4
2022-09-10T08:15:13.396Z,16.4
2022-09-10T08:17:17.354Z,16.4
2022-09-10T08:23:31.995Z,16.4
2022-09-10T08:25:55.891Z,16.3
2022-09-10T08:27:59.831Z,16.2
2022-09-10T08:30:03.765Z,16.2
2022-09-10T08:32:10.560Z,16.1
2022-09-10T08:34:14.499Z,16
2022-09-10T08:36:18.442Z,16
2022-09-10T08:38:22.387Z,16.1
2022-09-10T08:40:26.318Z,16.2
2022-09-10T08:44:34.203Z,16.2
2022-09-10T08:46:42.462Z,16.3
2022-09-10T08:48:46.399Z,16.2
2022-09-10T08:57:02.224Z,16.2
2022-09-10T09:01:12.990Z,16.3
2022-09-10T09:03:16.908Z,16.4
2022-09-10T09:05:20.844Z,16.5
2022-09-10T09:07:24.768Z,16.5
2022-09-10T09:11:32.648Z,16.5
2022-09-10T09:13:36.599Z,16.6
2022-09-10T09:15:43.434Z,16.7
2022-09-10T09:17:47.316Z,16.8
2022-09-10T09:20:54.655Z,17.1
2022-09-10T09:25:02.557Z,17.3
2022-09-10T09:29:13.279Z,17.9
2022-09-10T09:35:25.096Z,18.3
2022-09-10T09:37:29.053Z,18.1
2022-09-10T09:39:33.037Z,18.1
2022-09-10T09:41:36.933Z,18.1
2022-09-10T09:43:43.701Z,18.3
2022-09-10T09:45:47.696Z,18.2
2022-09-10T09:49:55.534Z,18.1
2022-09-10T09:51:59.474Z,18
2022-09-10T09:54:39.387Z,18
2022-09-10T09:56:07.538Z,18.1
2022-09-10T09:58:14.140Z,18.3
2022-09-10T10:00:18.110Z,18.3
2022-09-10T10:02:22.064Z,18.1
2022-09-10T10:04:25.987Z,18
2022-09-10T10:06:29.916Z,17.6
2022-09-10T10:08:33.852Z,17.4
2022-09-10T10:10:37.802Z,17.5
2022-09-10T10:12:44.577Z,18.2
2022-09-10T10:14:48.493Z,18
2022-09-10T10:16:52.583Z,17.9
2022-09-10T10:17:55.807Z,18.1
2022-09-10T10:19:59.759Z,18.4
2022-09-10T10:22:03.704Z,18.3
2022-09-10T10:24:07.630Z,18
2022-09-10T10:26:14.402Z,18.2
2022-09-10T10:28:18.326Z,18
2022-09-10T10:30:22.267Z,18.3
2022-09-10T10:32:26.314Z,18.4
2022-09-10T10:34:30.149Z,18.2
2022-09-10T10:36:34.072Z,18.1
2022-09-10T10:38:38.052Z,18.4
2022-09-10T10:40:44.776Z,19.5
2022-09-10T10:42:48.701Z,19.6
2022-09-10T10:44:52.642Z,19.6
2022-09-10T10:46:56.579Z,20.8
2022-09-10T10:49:03.645Z,20.7
2022-09-10T10:51:04.435Z,21.1
2022-09-10T10:55:15.116Z,21.7
2022-09-10T10:59:22.978Z,21.7
2022-09-10T11:01:27.530Z,20.4
2022-09-10T11:03:31.362Z,19.6
2022-09-10T11:05:35.293Z,19.5
2022-09-10T11:07:39.220Z,19.2
2022-09-10T11:13:53.789Z,18.8
2022-09-10T11:14:57.170Z,18.7
2022-09-10T11:17:01.077Z,18.6
2022-09-10T11:19:04.974Z,18.7
2022-09-10T11:23:15.647Z,19.4
2022-09-10T11:25:19.579Z,19.6
2022-09-10T11:27:23.506Z,20.1
2022-09-10T11:29:27.402Z,20.1
2022-09-10T11:31:31.340Z,19.8
2022-09-10T11:33:35.243Z,20
2022-09-10T11:35:39.152Z,20.1
2022-09-10T11:37:45.914Z,20.4
2022-09-10T11:39:50.071Z,20.4
2022-09-10T11:46:01.831Z,19.6
2022-09-10T11:48:05.708Z,19.4
2022-09-10T11:54:20.301Z,19
2022-09-10T11:56:24.213Z,19
2022-09-10T11:58:28.150Z,18.9
2022-09-10T12:00:32.062Z,18.9
2022-09-10T12:02:36.003Z,19.1
2022-09-10T12:04:41.399Z,19.1
2022-09-10T12:06:46.678Z,18.9
2022-09-10T12:08:50.606Z,18.9
2022-09-10T12:10:54.509Z,19.1
2022-09-10T12:13:24.204Z,19.2
2022-09-10T12:15:28.140Z,19.2
2022-09-10T12:17:32.078Z,19.2
2022-09-10T12:23:46.665Z,24
2022-09-10T12:27:54.535Z,24.1
2022-09-10T12:29:58.446Z,25.1
2022-09-10T12:38:16.976Z,23
2022-09-10T12:40:20.934Z,21.9
2022-09-10T12:42:24.822Z,21.3
2022-09-10T12:44:28.721Z,20.7
2022-09-10T12:48:39.484Z,20.7
2022-09-10T12:50:43.287Z,20.7
2022-09-10T12:52:47.194Z,20.7
2022-09-10T12:54:51.101Z,20.6
2022-09-10T12:56:55.014Z,20.4
2022-09-10T12:58:58.916Z,20.3
2022-09-10T13:01:02.806Z,20.4
2022-09-10T13:03:09.572Z,20.4
2022-09-10T13:05:13.531Z,20.8
2022-09-10T13:08:20.732Z,21.9
2022-09-10T13:10:24.673Z,22.2
2022-09-10T13:12:28.577Z,22.2
2022-09-10T13:14:32.485Z,24.1
2022-09-10T13:16:39.230Z,25.2
2022-09-10T13:18:43.158Z,25.9
2022-09-10T13:20:47.036Z,26.6
2022-09-10T13:22:50.958Z,24.1
2022-09-10T13:24:54.862Z,22.8
2022-09-10T13:26:58.760Z,21.8
2022-09-10T13:29:02.656Z,21.5
2022-09-10T13:31:09.486Z,21.1
2022-09-10T13:35:17.234Z,20.9
2022-09-10T13:37:21.089Z,20.7
2022-09-10T13:41:28.889Z,20.7
2022-09-10T13:49:47.331Z,20.8
2022-09-10T13:51:51.237Z,21.1
2022-09-10T13:53:55.122Z,21
2022-09-10T13:55:59.029Z,21.1
2022-09-10T13:58:02.954Z,21.1
2022-09-10T14:00:09.745Z,21.5
2022-09-10T14:02:13.634Z,21.8
2022-09-10T14:04:17.506Z,22.6
2022-09-10T14:05:20.876Z,23.8
2022-09-10T14:09:28.703Z,23.8
2022-09-10T14:17:47.106Z,22.5
2022-09-10T14:19:51.016Z,22.2
2022-09-10T14:23:58.801Z,21.7
2022-09-10T14:26:02.692Z,21.4
2022-09-10T14:28:09.439Z,21.4
2022-09-10T14:30:13.297Z,21.3
2022-09-10T14:32:17.192Z,21.3
2022-09-10T14:34:21.091Z,21.1
2022-09-10T14:36:24.995Z,21.1
2022-09-10T14:38:28.862Z,20.9
2022-09-10T14:42:41.008Z,20.5
2022-09-10T14:46:48.778Z,20.6
2022-09-10T14:48:52.704Z,20.6
2022-09-10T14:50:56.613Z,20.4
2022-09-10T14:53:00.491Z,20.6
2022-09-10T14:55:04.419Z,20.9
2022-09-10T14:57:11.154Z,21.5
2022-09-10T14:59:15.046Z,21.6
2022-09-10T15:01:19.026Z,22
2022-09-10T15:04:26.253Z,22.6
2022-09-10T15:06:30.165Z,22.6
2022-09-10T15:08:34.052Z,22.4
2022-09-10T15:10:40.812Z,23.5
2022-09-10T15:18:56.395Z,22.3
2022-09-10T15:31:22.600Z,22.3
2022-09-10T15:35:30.373Z,21.5
2022-09-10T15:37:34.272Z,20.9
2022-09-10T15:43:48.821Z,19.9
2022-09-10T15:45:52.741Z,20
2022-09-10T15:47:56.623Z,20.2
2022-09-10T15:54:11.214Z,20.1
2022-09-10T15:56:15.113Z,20.1
2022-09-10T15:58:19.028Z,20.1
2022-09-10T16:00:48.729Z,20
2022-09-10T16:02:52.686Z,20
2022-09-10T16:04:56.574Z,19.9
2022-09-10T16:07:03.290Z,19.9
2022-09-10T16:09:07.213Z,19.9
2022-09-10T16:11:11.125Z,19.8
2022-09-10T16:13:15.128Z,19.8
2022-09-10T16:15:19.061Z,19.8
2022-09-10T16:17:22.934Z,19.8
2022-09-10T16:19:26.844Z,19.7
2022-09-10T16:21:33.584Z,19.6
2022-09-10T16:23:37.514Z,19.6
2022-09-10T16:25:41.462Z,19.5
2022-09-10T16:27:45.371Z,19.5
2022-09-10T16:29:49.286Z,19.5
2022-09-10T16:31:53.214Z,19.6
2022-09-10T16:33:57.132Z,19.6
2022-09-10T16:36:03.926Z,19.5
2022-09-10T16:38:07.851Z,19.5
2022-09-10T16:40:11.870Z,19.4
2022-09-10T16:42:15.704Z,19.4
2022-09-10T16:44:19.625Z,19.4
2022-09-10T16:46:23.639Z,19.4
2022-09-10T16:48:27.462Z,19.4
2022-09-10T16:50:34.240Z,19.4
2022-09-10T16:52:38.144Z,19.4
2022-09-10T16:54:42.064Z,19.4
2022-09-10T16:55:45.460Z,19.3
2022-09-10T16:57:49.397Z,19.3
2022-09-10T17:01:57.249Z,19.1
2022-09-10T17:06:07.953Z,19.1
2022-09-10T17:10:15.834Z,19.1
2022-09-10T17:16:27.665Z,19
2022-09-10T17:18:34.353Z,18.9
2022-09-10T17:20:38.293Z,18.9
2022-09-10T17:22:42.214Z,18.9
2022-09-10T17:24:46.156Z,18.8
2022-09-10T17:26:50.131Z,18.8
2022-09-10T17:30:57.995Z,18.8
2022-09-10T17:33:04.702Z,18.8
2022-09-10T17:35:08.656Z,18.7
2022-09-10T17:39:16.496Z,18.7
2022-09-10T17:41:20.436Z,18.7
2022-09-10T17:43:27.289Z,18.7
2022-09-10T17:45:28.977Z,18.7
2022-09-10T17:47:35.051Z,18.6
2022-09-10T17:52:46.314Z,18.5
2022-09-10T17:54:50.246Z,18.5
2022-09-10T17:56:54.173Z,18.4
2022-09-10T17:58:58.112Z,18.3
2022-09-10T18:01:04.885Z,18.2
2022-09-10T18:03:08.809Z,18.2
2022-09-10T18:05:12.761Z,18.1
2022-09-10T18:07:16.685Z,18
2022-09-10T18:09:20.618Z,18
2022-09-10T18:11:24.570Z,17.9
2022-09-10T18:13:28.507Z,17.9
2022-09-10T18:15:35.363Z,17.9
2022-09-10T18:17:39.214Z,17.8
2022-09-10T18:19:43.171Z,17.8
2022-09-10T18:21:47.088Z,17.7
2022-09-10T18:23:51.018Z,17.7
2022-09-10T18:25:54.977Z,17.7
2022-09-10T18:27:58.930Z,17.6
2022-09-10T18:30:05.704Z,17.6
2022-09-10T18:36:17.504Z,17.6
2022-09-10T18:38:21.434Z,17.5
2022-09-10T18:40:25.390Z,17.5
2022-09-10T18:44:36.110Z,17.4
2022-09-10T18:48:44.002Z,17.4
2022-09-10T18:49:47.546Z,17.3
2022-09-10T18:51:51.314Z,17.3
2022-09-10T18:53:55.263Z,17.3
2022-09-10T18:55:59.207Z,17.2
2022-09-10T18:58:05.999Z,17.1
2022-09-10T19:00:09.919Z,17.1
2022-09-10T19:02:14.080Z,17.1
2022-09-10T19:06:21.800Z,17
2022-09-10T19:08:25.751Z,17
2022-09-10T19:10:29.707Z,17
2022-09-10T19:12:36.485Z,16.9
2022-09-10T19:14:40.406Z,16.8
2022-09-10T19:16:44.353Z,16.8
2022-09-10T19:18:48.281Z,16.8
2022-09-10T19:22:56.159Z,16.8
2022-09-10T19:27:06.893Z,16.7
2022-09-10T19:31:14.787Z,16.7
2022-09-10T19:37:26.573Z,16.7
2022-09-10T19:43:41.215Z,16.8
2022-09-10T19:45:45.134Z,16.8
2022-09-10T19:48:03.227Z,16.8
2022-09-10T19:54:17.881Z,16.9
2022-09-10T19:56:21.844Z,16.8
2022-09-10T19:58:25.765Z,16.8
2022-09-10T20:00:45.858Z,16.8
2022-09-10T20:02:33.690Z,16.7
2022-09-10T20:08:48.593Z,16.7
2022-09-10T20:10:52.863Z,16.7
2022-09-10T20:12:56.791Z,16.7
2022-09-10T20:15:00.756Z,16.6
2022-09-10T20:17:04.701Z,16.6
2022-09-10T20:19:08.614Z,16.5
2022-09-10T20:21:12.582Z,16.5
2022-09-10T20:23:19.331Z,16.5
2022-09-10T20:25:23.423Z,16.4
2022-09-10T20:27:27.232Z,16.4
2022-09-10T20:35:43.005Z,16.3
2022-09-10T20:39:55.300Z,16.2
2022-09-10T20:43:02.549Z,16.1
2022-09-10T20:45:06.469Z,16.1
2022-09-10T20:49:14.399Z,16.1
2022-09-10T20:51:21.434Z,16
2022-09-10T20:53:25.395Z,15.9
2022-09-10T20:55:29.335Z,15.9
2022-09-10T20:57:33.282Z,15.9
2022-09-10T20:59:37.203Z,15.8
2022-09-10T21:01:41.334Z,15.8
2022-09-10T21:03:45.112Z,15.8
2022-09-10T21:05:51.867Z,15.8
2022-09-10T21:07:55.813Z,15.7
2022-09-10T21:09:59.749Z,15.7
2022-09-10T21:12:03.763Z,15.7
2022-09-10T21:16:11.624Z,15.7
2022-09-10T21:18:15.552Z,15.6
2022-09-10T21:22:26.254Z,15.6
2022-09-10T21:24:30.217Z,15.5
2022-09-10T21:26:34.130Z,15.5
2022-09-10T21:28:38.195Z,15.5
2022-09-10T21:32:45.994Z,15.4
2022-09-10T21:34:52.759Z,15.3
2022-09-10T21:36:56.827Z,15.3
2022-09-10T21:39:00.654Z,15.3
2022-09-10T21:40:04.066Z,15.3
2022-09-10T21:46:15.878Z,15.3
2022-09-10T21:52:30.492Z,15.1
2022-09-10T22:00:46.339Z,15
2022-09-10T22:02:53.098Z,14.9
2022-09-10T22:04:57.031Z,14.9
2022-09-10T22:07:00.985Z,14.9
2022-09-10T22:09:04.940Z,14.9
2022-09-10T22:11:08.882Z,14.8
2022-09-10T22:13:12.824Z,14.8
2022-09-10T22:15:16.780Z,14.8
2022-09-10T22:17:23.502Z,14.8
2022-09-10T22:23:35.356Z,14.7
2022-09-10T22:27:43.235Z,14.7
2022-09-10T22:29:47.161Z,14.7
2022-09-10T22:31:53.922Z,14.7
2022-09-10T22:33:57.877Z,14.6
2022-09-10T22:36:02.530Z,14.7
2022-09-10T22:37:05.869Z,14.6
2022-09-10T22:39:09.825Z,14.6
2022-09-10T22:41:13.761Z,14.6
2022-09-10T22:43:17.826Z,14.6
2022-09-10T22:45:24.454Z,14.7
2022-09-10T22:47:28.411Z,14.7
2022-09-10T22:49:32.335Z,14.8
2022-09-10T22:51:36.276Z,14.6
2022-09-10T22:53:40.375Z,14.6
2022-09-10T22:55:44.138Z,14.5
2022-09-10T22:57:48.083Z,14.5
2022-09-10T22:59:54.851Z,14.5
2022-09-10T23:01:58.884Z,14.5
2022-09-10T23:04:02.906Z,14.5
2022-09-10T23:06:06.663Z,14.5
2022-09-10T23:08:10.597Z,14.6
2022-09-10T23:10:14.573Z,14.6
2022-09-10T23:12:18.488Z,14.6
2022-09-10T23:22:41.033Z,14.6
2022-09-10T23:28:55.657Z,14.4
2022-09-10T23:30:59.654Z,14.5
2022-09-10T23:33:03.544Z,14.4
2022-09-10T23:35:27.600Z,14.4
2022-09-10T23:37:31.397Z,14.4
2022-09-10T23:39:35.424Z,14.5
2022-09-10T23:41:42.104Z,14.5
2022-09-10T23:43:46.042Z,14.5
2022-09-10T23:45:49.988Z,14.5
2022-09-10T23:47:53.904Z,14.4
2022-09-10T23:49:57.870Z,14.4
2022-09-10T23:52:01.793Z,14.4
2022-09-10T23:54:05.753Z,14.4
2022-09-10T23:56:12.501Z,14.4
2022-09-10T23:58:16.448Z,14.4
